EmailTwitter


Observations de surface / France / LFMK (07635)

Régions: Québec | Canada | États-Unis | Europe | France | UK | Ailleurs
Station
Affichage
Infos & localisation pour LFMK (07635) | Aide pour décoder les METARs

Observations prises le 2019-04-23 à 18H30 UTC à CARCASSONNE/SALV, FR (LFMK)

Etat du ciel: couvert.

Température: 14.0 Celsius

Point de rosée: 13.0 Celsius

Humidité relative: 94%

Vents: Est à 26 km/h ou 14 noeuds.

Pression au niveau moyen de la mer: 99.60 kilopascals.

Visibilité horizontale: 4.35 milles terrestres ou 6.96 kilomètres.

Hauteur du plafond: 152 mètres ( 500 pieds ).

Observation METAR:

LFMK 231830Z AUTO 08014KT 7000 OVC005 14/13 Q0996 TEMPO 10020G30KT BECMG BKN012

=